createdAt,value
2019-04-01T00:00:52.926Z,3.30
2019-04-01T00:05:59.510Z,3.20
2019-04-01T00:11:06.349Z,3.10
2019-04-01T00:16:12.881Z,3.10
2019-04-01T00:21:19.537Z,3.20
2019-04-01T00:26:26.202Z,3.10
2019-04-01T00:31:32.744Z,3.20
2019-04-01T00:36:39.219Z,3.10
2019-04-01T00:42:03.690Z,3.10
2019-04-01T00:47:10.642Z,3.10
2019-04-01T00:52:17.255Z,3.00
2019-04-01T00:57:23.725Z,3.00
2019-04-01T01:02:30.342Z,3.00
2019-04-01T01:07:37.321Z,2.90
2019-04-01T01:12:43.843Z,2.90
2019-04-01T01:17:50.396Z,2.80
2019-04-01T01:22:57.028Z,2.80
2019-04-01T01:28:03.505Z,2.80
2019-04-01T01:33:11.018Z,2.80
2019-04-01T01:38:17.517Z,2.80
2019-04-01T01:43:24.120Z,2.80
2019-04-01T01:48:30.732Z,2.70
2019-04-01T01:53:37.259Z,2.70
2019-04-01T01:58:43.878Z,2.70
2019-04-01T02:03:50.586Z,2.70
2019-04-01T02:08:57.203Z,2.60
2019-04-01T02:14:03.814Z,2.60
2019-04-01T02:19:10.366Z,2.50
2019-04-01T02:24:16.834Z,2.50
2019-04-01T02:29:23.299Z,2.40
2019-04-01T02:34:29.771Z,2.40
2019-04-01T02:39:36.572Z,2.30
2019-04-01T02:44:43.111Z,2.30
2019-04-01T02:49:49.643Z,2.20
2019-04-01T02:54:56.244Z,2.20
2019-04-01T03:00:02.776Z,2.20
2019-04-01T03:05:09.455Z,2.10
2019-04-01T03:10:16.264Z,2.10
2019-04-01T03:15:22.924Z,2.10
2019-04-01T03:20:29.693Z,2.00
2019-04-01T03:25:36.298Z,2.00
2019-04-01T03:30:42.841Z,1.90
2019-04-01T03:35:49.509Z,1.90
2019-04-01T03:40:56.124Z,1.80
2019-04-01T03:46:02.726Z,1.80
2019-04-01T03:51:09.262Z,1.70
2019-04-01T03:56:15.804Z,1.70
2019-04-01T04:01:22.434Z,1.70
2019-04-01T04:06:30.061Z,1.60
2019-04-01T04:11:36.668Z,1.60
2019-04-01T04:16:43.198Z,1.50
2019-04-01T04:21:49.765Z,1.50
2019-04-01T04:26:56.222Z,1.40
2019-04-01T04:32:02.885Z,1.20
2019-04-01T04:37:09.435Z,1.10
2019-04-01T04:42:16.060Z,1.00
2019-04-01T04:47:22.675Z,1.00
2019-04-01T04:52:29.244Z,1.10
2019-04-01T04:57:35.843Z,1.10
2019-04-01T05:02:42.449Z,1.10
2019-04-01T05:07:49.218Z,1.10
2019-04-01T05:12:55.756Z,1.20
2019-04-01T05:18:02.209Z,1.20
2019-04-01T05:23:10.321Z,1.30
2019-04-01T05:28:18.514Z,1.40
2019-04-01T05:33:26.134Z,1.50
2019-04-01T05:38:33.526Z,1.60
2019-04-01T05:43:40.546Z,1.70
2019-04-01T05:48:47.151Z,1.90
2019-04-01T05:53:53.730Z,2.00
2019-04-01T05:59:01.027Z,2.10
2019-04-01T06:04:07.718Z,2.30
2019-04-01T06:09:14.335Z,2.50
2019-04-01T06:14:21.129Z,2.80
2019-04-01T06:19:28.959Z,2.90
2019-04-01T06:24:36.056Z,3.00
2019-04-01T06:29:42.646Z,3.10
2019-04-01T06:34:53.026Z,3.30
2019-04-01T06:39:57.554Z,3.40
2019-04-01T06:45:04.741Z,3.60
2019-04-01T06:50:11.548Z,3.70
2019-04-01T06:55:18.237Z,3.90
2019-04-01T07:00:24.825Z,4.10
2019-04-01T07:05:31.520Z,4.30
2019-04-01T07:10:38.145Z,4.40
2019-04-01T07:15:44.754Z,4.70
2019-04-01T07:20:51.398Z,4.80
2019-04-01T07:25:58.019Z,5.10
2019-04-01T07:31:04.723Z,5.30
2019-04-01T07:36:11.344Z,5.60
2019-04-01T07:41:17.957Z,5.80
2019-04-01T07:46:24.765Z,6.10
2019-04-01T07:51:31.400Z,6.30
2019-04-01T07:56:38.164Z,6.60
2019-04-01T08:01:44.817Z,6.80
2019-04-01T08:06:51.837Z,7.00
2019-04-01T08:11:58.457Z,7.20
2019-04-01T08:17:05.078Z,7.40
2019-04-01T08:22:11.732Z,7.70
2019-04-01T08:27:18.319Z,7.90
2019-04-01T08:32:25.909Z,7.90
2019-04-01T08:37:32.896Z,8.20
2019-04-01T08:42:39.499Z,8.30
2019-04-01T08:47:47.325Z,8.40
2019-04-01T08:52:54.234Z,8.70
2019-04-01T08:58:01.139Z,8.90
2019-04-01T09:03:07.754Z,9.00
2019-04-01T09:08:14.371Z,9.20
2019-04-01T09:13:21.083Z,9.50
2019-04-01T09:18:27.608Z,9.80
2019-04-01T09:23:34.251Z,9.90
2019-04-01T09:28:40.872Z,10.10
2019-04-01T09:33:47.416Z,10.20
2019-04-01T09:38:53.911Z,10.50
2019-04-01T09:44:00.523Z,10.50
2019-04-01T09:49:07.199Z,10.70
2019-04-01T09:54:13.826Z,10.90
2019-04-01T09:59:20.465Z,11.10
2019-04-01T10:04:27.042Z,11.10
2019-04-01T10:09:33.780Z,11.10
2019-04-01T10:14:40.357Z,11.20
2019-04-01T10:19:47.019Z,11.60
2019-04-01T10:24:53.694Z,11.60
2019-04-01T10:30:00.436Z,11.50
2019-04-01T10:35:08.196Z,11.60
2019-04-01T10:40:15.093Z,11.80
2019-04-01T10:45:21.798Z,11.80
2019-04-01T10:50:28.416Z,11.90
2019-04-01T10:55:35.128Z,12.20
2019-04-01T11:00:41.863Z,12.30
2019-04-01T11:05:48.552Z,12.50
2019-04-01T11:10:55.197Z,12.50
2019-04-01T11:16:01.894Z,12.60
2019-04-01T11:21:08.568Z,12.90
2019-04-01T11:26:15.256Z,13.10
2019-04-01T11:31:21.950Z,12.70
2019-04-01T11:36:28.732Z,13.00
2019-04-01T11:41:35.620Z,13.50
2019-04-01T11:46:42.294Z,13.30
2019-04-01T11:51:48.944Z,13.50
2019-04-01T11:56:55.509Z,13.50
2019-04-01T12:02:02.147Z,13.60
2019-04-01T12:07:08.774Z,13.40
2019-04-01T12:12:23.642Z,13.40
2019-04-01T12:17:25.066Z,13.40
2019-04-01T12:22:31.655Z,13.70
2019-04-01T12:27:38.315Z,13.60
2019-04-01T12:32:45.000Z,13.80
2019-04-01T12:37:51.501Z,14.00
2019-04-01T12:42:59.134Z,13.90
2019-04-01T12:48:05.959Z,13.70
2019-04-01T12:53:12.612Z,13.80
2019-04-01T12:58:20.639Z,13.90
2019-04-01T13:03:27.481Z,14.10
2019-04-01T13:08:34.178Z,14.30
2019-04-01T13:13:41.097Z,14.00
2019-04-01T13:18:47.893Z,14.10
2019-04-01T13:23:54.384Z,14.20
2019-04-01T13:29:00.982Z,14.10
2019-04-01T13:34:08.017Z,14.10
2019-04-01T13:39:14.589Z,14.30
2019-04-01T13:44:35.672Z,14.10
2019-04-01T13:49:29.237Z,13.90
2019-04-01T13:54:35.794Z,14.00
2019-04-01T13:59:49.010Z,14.10
2019-04-01T14:04:50.923Z,13.90
2019-04-01T14:09:57.560Z,14.30
2019-04-01T14:15:04.626Z,14.20
2019-04-01T14:20:12.992Z,14.30
2019-04-01T14:25:20.837Z,14.30
2019-04-01T14:30:27.493Z,14.10
2019-04-01T14:35:35.621Z,14.40
2019-04-01T14:40:42.276Z,14.60
2019-04-01T14:45:55.556Z,14.60
2019-04-01T14:51:04.001Z,14.30
2019-04-01T14:56:10.640Z,14.10
2019-04-01T15:01:17.387Z,14.10
2019-04-01T15:06:24.030Z,14.00
2019-04-01T15:11:30.683Z,14.10
2019-04-01T15:16:37.338Z,14.00
2019-04-01T15:21:47.227Z,14.10
2019-04-01T15:26:52.134Z,13.80
2019-04-01T15:31:58.748Z,13.70
2019-04-01T15:37:05.438Z,13.80
2019-04-01T15:42:12.151Z,13.50
2019-04-01T15:47:18.761Z,13.50
2019-04-01T15:52:27.032Z,13.60
2019-04-01T15:57:33.711Z,13.50
2019-04-01T16:02:40.286Z,13.10
2019-04-01T16:07:46.754Z,13.00
2019-04-01T16:12:53.401Z,13.00
2019-04-01T16:17:59.979Z,13.00
2019-04-01T16:23:06.698Z,12.70
2019-04-01T16:28:14.206Z,12.70
2019-04-01T16:33:20.851Z,12.50
2019-04-01T16:38:28.576Z,12.30
2019-04-01T16:43:38.078Z,12.20
2019-04-01T16:48:46.361Z,12.10
2019-04-01T16:53:51.712Z,11.60
2019-04-01T16:58:59.128Z,11.60
2019-04-01T17:04:06.643Z,11.40
2019-04-01T17:09:13.535Z,11.00
2019-04-01T17:14:20.155Z,10.80
2019-04-01T17:19:27.945Z,10.60
2019-04-01T17:24:34.922Z,10.30
2019-04-01T17:29:46.788Z,10.10
2019-04-01T17:34:53.818Z,9.90
2019-04-01T17:40:02.057Z,9.70
2019-04-01T17:45:35.986Z,9.50
2019-04-01T17:50:44.068Z,9.40
2019-04-01T17:55:50.727Z,9.20
2019-04-01T18:00:59.344Z,9.00
2019-04-01T18:06:06.003Z,8.90
2019-04-01T18:11:15.915Z,8.70
2019-04-01T18:16:21.012Z,8.60
2019-04-01T18:21:27.675Z,8.40
2019-04-01T18:26:34.326Z,8.30
2019-04-01T18:31:40.788Z,8.20
2019-04-01T18:36:47.323Z,8.00
2019-04-01T18:41:53.940Z,7.90
2019-04-01T18:47:03.810Z,7.80
2019-04-01T18:52:09.284Z,7.70
2019-04-01T18:57:16.227Z,7.60
2019-04-01T19:02:22.812Z,7.50
2019-04-01T19:07:29.510Z,7.40
2019-04-01T19:12:36.458Z,7.30
2019-04-01T19:17:43.337Z,7.20
2019-04-01T19:22:50.204Z,7.10
2019-04-01T19:27:56.819Z,7.00
2019-04-01T19:33:06.430Z,6.90
2019-04-01T19:38:11.665Z,6.80
2019-04-01T19:43:18.211Z,6.70
2019-04-01T19:48:24.726Z,6.60
2019-04-01T19:53:31.350Z,6.50
2019-04-01T19:58:37.903Z,6.40
2019-04-01T20:03:44.455Z,6.30
2019-04-01T20:08:50.942Z,6.20
2019-04-01T20:13:57.552Z,6.10
2019-04-01T20:19:05.227Z,5.90
2019-04-01T20:24:12.076Z,5.80
2019-04-01T20:29:18.688Z,5.70
2019-04-01T20:34:25.234Z,5.60
2019-04-01T20:39:31.842Z,5.50
2019-04-01T20:44:38.454Z,5.40
2019-04-01T20:49:44.997Z,5.30
2019-04-01T20:54:51.529Z,5.20
2019-04-01T20:59:58.061Z,5.20
2019-04-01T21:05:05.605Z,5.10
2019-04-01T21:10:13.163Z,5.10
2019-04-01T21:15:21.904Z,4.90
2019-04-01T21:20:28.519Z,4.60
2019-04-01T21:25:35.155Z,4.30
2019-04-01T21:30:41.785Z,4.30
2019-04-01T21:35:48.391Z,4.30
2019-04-01T21:40:56.295Z,4.40
2019-04-01T21:46:03.136Z,4.30
2019-04-01T21:51:09.766Z,4.30
2019-04-01T21:56:15.678Z,4.30
2019-04-01T22:01:22.581Z,4.20
2019-04-01T22:06:29.180Z,4.10
2019-04-01T22:11:35.803Z,3.90
2019-04-01T22:16:42.413Z,3.90
2019-04-01T22:21:48.970Z,3.70
2019-04-01T22:26:56.107Z,3.70
2019-04-01T22:32:02.909Z,3.70
2019-04-01T22:37:09.599Z,3.60
2019-04-01T22:42:16.089Z,3.40
2019-04-01T22:47:24.434Z,3.20
2019-04-01T22:52:30.838Z,3.00
2019-04-01T22:57:37.452Z,2.90
2019-04-01T23:02:43.977Z,2.80
2019-04-01T23:07:50.498Z,2.70
2019-04-01T23:12:56.975Z,2.70
2019-04-01T23:18:03.627Z,2.60
2019-04-01T23:23:10.108Z,2.40
2019-04-01T23:28:16.653Z,2.40
2019-04-01T23:33:23.206Z,2.30
2019-04-01T23:38:29.750Z,2.40
2019-04-01T23:43:36.287Z,2.40
2019-04-01T23:48:42.836Z,2.30
2019-04-01T23:53:49.376Z,2.30
2019-04-01T23:58:56.007Z,2.40
